createdAt,value
2016-07-05T00:00:19.946Z,1121.42
2016-07-05T00:01:19.998Z,1121.22
2016-07-05T00:02:19.982Z,1120.67
2016-07-05T00:03:19.983Z,1120.66
2016-07-05T00:04:19.978Z,1120.31
2016-07-05T00:05:19.973Z,1119.92
2016-07-05T00:06:19.964Z,1119.84
2016-07-05T00:07:19.972Z,1119.39
2016-07-05T00:08:19.981Z,1119.22
2016-07-05T00:09:19.969Z,1119.18
2016-07-05T00:10:19.982Z,1119.01
2016-07-05T00:11:19.996Z,1118.64
2016-07-05T00:12:20.001Z,1118.25
2016-07-05T00:13:20.010Z,1117.87
2016-07-05T00:14:20.004Z,1117.91
2016-07-05T00:15:19.979Z,1117.34
2016-07-05T00:16:19.988Z,1117.32
2016-07-05T00:17:19.976Z,1117.06
2016-07-05T00:18:19.963Z,1116.78
2016-07-05T00:19:19.975Z,1116.6
2016-07-05T00:20:19.974Z,1116.4
2016-07-05T00:21:19.985Z,1116.11
2016-07-05T00:22:20.039Z,1115.72
2016-07-05T00:23:19.987Z,1115.63
2016-07-05T00:24:19.979Z,1115.36
2016-07-05T00:25:20.005Z,1115.12
2016-07-05T00:26:19.980Z,1114.8
2016-07-05T00:27:19.983Z,1114.58
2016-07-05T00:28:20.032Z,1114.32
2016-07-05T00:29:20.009Z,1114.22
2016-07-05T00:30:20.016Z,1113.86
2016-07-05T00:31:19.977Z,1113.78
2016-07-05T00:32:19.988Z,1113.54
2016-07-05T00:33:19.986Z,1113.1
2016-07-05T00:34:19.993Z,1113.2
2016-07-05T00:35:19.980Z,1113.09
2016-07-05T00:36:20.008Z,1112.8
2016-07-05T00:37:19.985Z,1112.66
2016-07-05T00:38:19.987Z,1112.42
2016-07-05T00:39:20.011Z,1112.16
2016-07-05T00:40:20.021Z,1111.86
2016-07-05T00:41:19.979Z,1111.51
2016-07-05T00:42:20.005Z,1111.59
2016-07-05T00:43:20.007Z,1111.35
2016-07-05T00:44:20.004Z,1111.13
2016-07-05T00:45:19.994Z,1110.82
2016-07-05T00:46:20.016Z,1110.54
2016-07-05T00:47:19.995Z,1110.07
2016-07-05T00:48:19.988Z,1110
2016-07-05T00:49:20.005Z,1109.91
2016-07-05T00:50:19.995Z,1109.61
2016-07-05T00:51:20.000Z,1109.63
2016-07-05T00:52:20.007Z,1109.17
2016-07-05T00:53:20.000Z,1108.88
2016-07-05T00:54:19.993Z,1108.66
2016-07-05T00:55:20.002Z,1108.53
2016-07-05T00:56:20.009Z,1108.3
2016-07-05T00:57:20.009Z,1108.21
2016-07-05T00:58:20.014Z,1108.15
2016-07-05T00:59:19.999Z,1107.9
2016-07-05T01:00:20.004Z,1108
2016-07-05T01:01:20.010Z,1107.82
2016-07-05T01:02:20.002Z,1107.9
2016-07-05T01:03:20.001Z,1107.79
2016-07-05T01:04:20.011Z,1107.76
2016-07-05T01:05:20.009Z,1107.97
2016-07-05T01:06:20.011Z,1108.04
2016-07-05T01:07:20.009Z,1108.3
2016-07-05T01:08:20.011Z,1108.6
2016-07-05T01:09:20.011Z,1108.76
2016-07-05T01:10:20.024Z,1108.95
2016-07-05T01:11:20.015Z,1109.58
2016-07-05T01:12:20.024Z,1109.86
2016-07-05T01:13:20.028Z,1110.38
2016-07-05T01:14:20.018Z,1110.85
2016-07-05T01:15:20.014Z,1111.27
2016-07-05T01:16:20.041Z,1111.94
2016-07-05T01:17:20.047Z,1112.23
2016-07-05T01:18:20.040Z,1112.58
2016-07-05T01:19:20.163Z,1113.35
2016-07-05T01:20:20.039Z,1113.75
2016-07-05T01:21:20.020Z,1114.13
2016-07-05T01:22:20.039Z,1114.77
2016-07-05T01:23:20.026Z,1115.06
2016-07-05T01:24:20.019Z,1115.4
2016-07-05T01:25:20.038Z,1115.85
2016-07-05T01:26:20.030Z,1116.16
2016-07-05T01:27:20.032Z,1116.46
2016-07-05T01:28:20.020Z,1116.94
2016-07-05T01:29:20.018Z,1117.32
2016-07-05T01:30:20.039Z,1117.79
2016-07-05T01:31:20.025Z,1117.97
2016-07-05T01:32:20.036Z,1118.34
2016-07-05T01:33:20.038Z,1118.56
2016-07-05T01:34:20.088Z,1118.6
2016-07-05T01:35:20.036Z,1118.86
2016-07-05T01:36:20.039Z,1118.87
2016-07-05T01:37:20.037Z,1118.99
2016-07-05T01:38:20.040Z,1119.13
2016-07-05T01:39:20.033Z,1119.17
2016-07-05T01:40:20.045Z,1119.24
2016-07-05T01:41:20.033Z,1119.2
2016-07-05T01:42:20.041Z,1119.3
2016-07-05T01:43:20.040Z,1119.19
2016-07-05T01:44:20.039Z,1119.29
2016-07-05T01:45:20.060Z,1119.02
2016-07-05T01:46:20.114Z,1119.16
2016-07-05T01:47:20.049Z,1119.12
2016-07-05T01:48:20.039Z,1118.94
2016-07-05T01:49:20.045Z,1118.98
2016-07-05T01:50:20.054Z,1118.87
2016-07-05T01:51:20.047Z,1118.94
2016-07-05T01:52:20.050Z,1118.68
2016-07-05T01:53:20.036Z,1118.58
2016-07-05T01:54:20.049Z,1118.29
2016-07-05T01:55:20.072Z,1118.22
2016-07-05T01:56:20.047Z,1117.98
2016-07-05T01:57:20.051Z,1117.9
2016-07-05T01:58:20.066Z,1117.85
2016-07-05T01:59:20.048Z,1117.52
2016-07-05T02:00:20.062Z,1117.11
2016-07-05T02:01:20.064Z,1116.51
2016-07-05T02:02:20.131Z,1116.43
2016-07-05T02:03:20.133Z,1116.16
2016-07-05T02:04:20.129Z,1115.68
2016-07-05T02:05:20.129Z,1115.34
2016-07-05T02:06:20.129Z,1115.13
2016-07-05T02:07:20.127Z,1114.81
2016-07-05T02:08:20.123Z,1114.42
2016-07-05T02:09:20.054Z,1114.48
2016-07-05T02:10:20.073Z,1114.17
2016-07-05T02:11:20.187Z,1114.02
2016-07-05T02:12:20.065Z,1113.88
2016-07-05T02:13:20.070Z,1113.67
2016-07-05T02:14:20.063Z,1113.45
2016-07-05T02:15:20.068Z,1113.36
2016-07-05T02:16:20.063Z,1113.24
2016-07-05T02:17:20.103Z,1113.03
2016-07-05T02:18:20.077Z,1112.78
2016-07-05T02:19:20.089Z,1112.96
2016-07-05T02:20:20.081Z,1112.8
2016-07-05T02:21:20.067Z,1113.16
2016-07-05T02:22:20.098Z,1112.95
2016-07-05T02:23:20.070Z,1113.39
2016-07-05T02:24:20.087Z,1113.52
2016-07-05T02:25:20.082Z,1113.8
2016-07-05T02:26:20.101Z,1114.2
2016-07-05T02:27:20.100Z,1114.66
2016-07-05T02:28:20.072Z,1115.04
2016-07-05T02:29:20.076Z,1115.39
2016-07-05T02:30:20.066Z,1115.9
2016-07-05T02:31:20.069Z,1116.32
2016-07-05T02:32:20.094Z,1116.97
2016-07-05T02:33:20.096Z,1117.59
2016-07-05T02:34:20.098Z,1117.95
2016-07-05T02:35:20.082Z,1118.52
2016-07-05T02:36:20.083Z,1118.99
2016-07-05T02:37:20.081Z,1119.61
2016-07-05T02:38:20.103Z,1120.07
2016-07-05T02:39:20.098Z,1120.49
2016-07-05T02:40:20.087Z,1121.02
2016-07-05T02:41:20.081Z,1121.54
2016-07-05T02:42:20.078Z,1121.93
2016-07-05T02:43:20.104Z,1122.49
2016-07-05T02:44:20.092Z,1122.9
2016-07-05T02:45:20.085Z,1123.42
2016-07-05T02:46:20.092Z,1123.65
2016-07-05T02:47:20.097Z,1124.05
2016-07-05T02:48:20.096Z,1124.41
2016-07-05T02:49:20.098Z,1125
2016-07-05T02:50:20.104Z,1125.38
2016-07-05T02:51:20.106Z,1125.64
2016-07-05T02:52:20.105Z,1126.03
2016-07-05T02:53:20.107Z,1126.42
2016-07-05T02:54:20.105Z,1126.76
2016-07-05T02:55:20.105Z,1127.29
2016-07-05T02:56:20.104Z,1127.69
2016-07-05T02:57:20.096Z,1127.92
2016-07-05T02:58:20.089Z,1128.36
2016-07-05T02:59:20.099Z,1128.92
2016-07-05T03:00:20.095Z,1129.33
2016-07-05T03:01:20.102Z,1129.47
2016-07-05T03:02:20.103Z,1129.95
2016-07-05T03:03:20.102Z,1130.34
2016-07-05T03:04:20.105Z,1130.65
2016-07-05T03:05:20.135Z,1130.92
2016-07-05T03:06:20.102Z,1131.12
2016-07-05T03:07:20.111Z,1131.72
2016-07-05T03:08:20.120Z,1131.88
2016-07-05T03:09:20.117Z,1132.21
2016-07-05T03:10:20.121Z,1132.42
2016-07-05T03:11:20.130Z,1132.6
2016-07-05T03:12:20.119Z,1133
2016-07-05T03:13:20.132Z,1133.06
2016-07-05T03:14:20.113Z,1133.38
2016-07-05T03:15:20.116Z,1133.83
2016-07-05T03:16:20.122Z,1134.11
2016-07-05T03:17:20.111Z,1134.35
2016-07-05T03:18:20.118Z,1134.58
2016-07-05T03:19:20.135Z,1134.77
2016-07-05T03:20:20.121Z,1134.92
2016-07-05T03:21:20.128Z,1135.2
2016-07-05T03:22:20.125Z,1135.35
2016-07-05T03:23:20.133Z,1135.34
2016-07-05T03:24:20.135Z,1135.63
2016-07-05T03:25:20.137Z,1135.87
2016-07-05T03:26:20.139Z,1135.97
2016-07-05T03:27:20.129Z,1136.32
2016-07-05T03:28:20.129Z,1136.24
2016-07-05T03:29:20.117Z,1136.52
2016-07-05T03:30:20.137Z,1136.73
2016-07-05T03:31:20.146Z,1136.83
2016-07-05T03:32:20.146Z,1137.04
2016-07-05T03:33:20.140Z,1137.03
2016-07-05T03:34:20.139Z,1137.18
2016-07-05T03:35:20.128Z,1137.35
2016-07-05T03:36:20.130Z,1137.6
2016-07-05T03:37:20.137Z,1137.73
2016-07-05T03:38:20.170Z,1137.85
2016-07-05T03:39:20.140Z,1138.02
2016-07-05T03:40:20.135Z,1138.1
2016-07-05T03:41:20.139Z,1138.2
2016-07-05T03:42:20.135Z,1138.44
2016-07-05T03:43:20.140Z,1138.65
2016-07-05T03:44:20.162Z,1138.88
2016-07-05T03:45:20.138Z,1138.95
2016-07-05T03:46:20.146Z,1139.25
2016-07-05T03:47:20.139Z,1139.43
2016-07-05T03:48:20.148Z,1139.61
2016-07-05T03:49:20.157Z,1139.57
2016-07-05T03:50:20.145Z,1139.98
2016-07-05T03:51:20.142Z,1140.25
2016-07-05T03:52:20.164Z,1140.29
2016-07-05T03:53:20.168Z,1140.61
2016-07-05T03:54:20.160Z,1140.72
2016-07-05T03:55:20.146Z,1141.02
2016-07-05T03:56:20.156Z,1141.29
2016-07-05T03:57:20.154Z,1141.56
2016-07-05T03:58:20.158Z,1141.88
2016-07-05T03:59:20.172Z,1142.21
2016-07-05T04:00:20.166Z,1142.33
2016-07-05T04:01:20.176Z,1142.75
2016-07-05T04:02:20.170Z,1143.13
2016-07-05T04:03:20.153Z,1143.44
2016-07-05T04:04:20.170Z,1143.89
2016-07-05T04:05:20.178Z,1144.13
2016-07-05T04:06:20.173Z,1144.49
2016-07-05T04:07:20.173Z,1144.82
2016-07-05T04:08:20.170Z,1144.99
2016-07-05T04:09:20.181Z,1145.5
2016-07-05T04:10:20.175Z,1145.72
2016-07-05T04:11:20.171Z,1146.05
2016-07-05T04:12:20.164Z,1146.4
2016-07-05T04:13:20.167Z,1146.72
2016-07-05T04:14:20.169Z,1147.1
2016-07-05T04:15:20.176Z,1147.53
2016-07-05T04:16:20.181Z,1147.81
2016-07-05T04:17:20.171Z,1148.12
2016-07-05T04:18:20.177Z,1148.55
2016-07-05T04:19:20.169Z,1148.83
2016-07-05T04:20:20.180Z,1149.16
2016-07-05T04:21:20.173Z,1149.49
2016-07-05T04:22:20.192Z,1149.85
2016-07-05T04:23:20.168Z,1150.16
2016-07-05T04:24:20.204Z,1150.53
2016-07-05T04:25:20.227Z,1150.92
2016-07-05T04:26:20.179Z,1151.26
2016-07-05T04:27:20.188Z,1151.56
2016-07-05T04:28:20.198Z,1151.88
2016-07-05T04:29:20.188Z,1152.07
2016-07-05T04:30:20.190Z,1152.44
2016-07-05T04:31:20.202Z,1152.78
2016-07-05T04:32:20.195Z,1153.07
2016-07-05T04:33:20.185Z,1153.31
2016-07-05T04:34:20.191Z,1153.56
2016-07-05T04:35:20.204Z,1153.83
2016-07-05T04:36:20.206Z,1153.96
2016-07-05T04:37:20.206Z,1154.3
2016-07-05T04:38:20.189Z,1154.48
2016-07-05T04:39:20.202Z,1154.6
2016-07-05T04:40:20.201Z,1154.77
2016-07-05T04:41:20.197Z,1154.89
2016-07-05T04:42:20.202Z,1155.05
2016-07-05T04:43:20.206Z,1155.2
2016-07-05T04:44:20.208Z,1155.29
2016-07-05T04:45:20.200Z,1155.49
2016-07-05T04:46:20.208Z,1155.53
2016-07-05T04:47:20.210Z,1155.69
2016-07-05T04:48:20.206Z,1155.76
2016-07-05T04:49:20.200Z,1155.81
2016-07-05T04:50:20.201Z,1155.98
2016-07-05T04:51:20.206Z,1155.89
2016-07-05T04:52:20.217Z,1155.9
2016-07-05T04:53:20.206Z,1155.88
2016-07-05T04:54:20.190Z,1155.84
2016-07-05T04:55:20.201Z,1155.94
2016-07-05T04:56:20.213Z,1155.91
2016-07-05T04:57:20.205Z,1155.98
2016-07-05T04:58:20.234Z,1155.93
2016-07-05T04:59:20.202Z,1155.98
2016-07-05T05:00:20.202Z,1155.98
2016-07-05T05:01:20.204Z,1156.24
2016-07-05T05:02:20.212Z,1156.5
2016-07-05T05:03:20.208Z,1156.69
2016-07-05T05:04:20.207Z,1156.9
2016-07-05T05:05:20.236Z,1157.07
2016-07-05T05:06:20.234Z,1157.16
2016-07-05T05:07:20.234Z,1157.27
2016-07-05T05:08:20.209Z,1157.27
2016-07-05T05:09:20.218Z,1157.36
2016-07-05T05:10:20.243Z,1157.34
2016-07-05T05:11:20.214Z,1157.36
2016-07-05T05:12:20.227Z,1157.37
2016-07-05T05:13:20.265Z,1157.43
2016-07-05T05:14:20.239Z,1157.4
2016-07-05T05:15:20.232Z,1157.45
2016-07-05T05:16:20.238Z,1157.47
2016-07-05T05:17:20.227Z,1157.43
2016-07-05T05:18:20.235Z,1157.41
2016-07-05T05:19:20.273Z,1157.37
2016-07-05T05:20:20.240Z,1157.27
2016-07-05T05:21:20.225Z,1157.18
2016-07-05T05:22:20.230Z,1157.08
2016-07-05T05:23:20.233Z,1156.93
2016-07-05T05:24:20.237Z,1156.68
2016-07-05T05:25:20.245Z,1156.51
2016-07-05T05:26:20.235Z,1156.38
2016-07-05T05:27:20.234Z,1156.29
2016-07-05T05:28:20.238Z,1156.22
2016-07-05T05:29:20.259Z,1156.1
2016-07-05T05:30:20.229Z,1156.12
2016-07-05T05:31:20.236Z,1156.16
2016-07-05T05:32:20.245Z,1156.27
2016-07-05T05:33:20.229Z,1156.41
2016-07-05T05:34:20.240Z,1156.65
2016-07-05T05:35:20.255Z,1156.78
2016-07-05T05:36:20.266Z,1156.84
2016-07-05T05:37:20.246Z,1156.93
2016-07-05T05:38:20.236Z,1156.98
2016-07-05T05:39:20.242Z,1157.05
2016-07-05T05:40:20.242Z,1157.12
2016-07-05T05:41:20.259Z,1157.1
2016-07-05T05:42:20.251Z,1157.16
2016-07-05T05:43:20.264Z,1157.12
2016-07-05T05:44:20.265Z,1157.11
2016-07-05T05:45:20.280Z,1157.09
2016-07-05T05:46:20.270Z,1157.08
2016-07-05T05:47:20.275Z,1157.06
2016-07-05T05:48:20.249Z,1157.09
2016-07-05T05:49:20.246Z,1157.04
2016-07-05T05:50:20.268Z,1157
2016-07-05T05:51:20.256Z,1157.01
2016-07-05T05:52:20.261Z,1156.93
2016-07-05T05:53:20.256Z,1156.93
2016-07-05T05:54:20.268Z,1156.77
2016-07-05T05:55:20.276Z,1156.73
2016-07-05T05:56:20.273Z,1156.59
2016-07-05T05:57:20.261Z,1156.53
2016-07-05T05:58:20.267Z,1156.38
2016-07-05T05:59:20.274Z,1156.19
2016-07-05T06:00:20.272Z,1156.04
2016-07-05T06:01:20.263Z,1155.9
2016-07-05T06:02:20.269Z,1155.68
2016-07-05T06:03:20.273Z,1155.45
2016-07-05T06:04:20.267Z,1155.34
2016-07-05T06:05:20.289Z,1155.14
2016-07-05T06:06:20.296Z,1154.89
2016-07-05T06:07:20.284Z,1154.61
2016-07-05T06:08:20.289Z,1154.35
2016-07-05T06:09:20.314Z,1153.99
2016-07-05T06:10:20.298Z,1153.63
2016-07-05T06:11:20.270Z,1153.25
2016-07-05T06:12:20.290Z,1152.89
2016-07-05T06:13:20.311Z,1152.44
2016-07-05T06:14:20.273Z,1151.94
2016-07-05T06:15:20.299Z,1151.61
2016-07-05T06:16:20.296Z,1151.01
2016-07-05T06:17:20.318Z,1150.37
2016-07-05T06:18:20.289Z,1149.63
2016-07-05T06:19:20.295Z,1148.99
2016-07-05T06:20:20.363Z,1148.28
2016-07-05T06:21:20.276Z,1147.81
2016-07-05T06:22:20.305Z,1146.91
2016-07-05T06:23:20.296Z,1145.69
2016-07-05T06:24:20.329Z,1144.14
2016-07-05T06:25:20.961Z,1141.77
2016-07-05T06:26:20.282Z,1137.19
2016-07-05T06:27:20.298Z,1129.55
2016-07-05T06:28:20.293Z,1117.06
2016-07-05T06:29:20.289Z,1093.23
2016-07-05T06:30:20.295Z,1060.24
2016-07-05T06:31:20.300Z,1031.9
2016-07-05T06:32:20.308Z,1002.87
2016-07-05T06:33:20.304Z,966.71
2016-07-05T06:34:20.304Z,926.18
2016-07-05T06:35:20.318Z,880.88
2016-07-05T06:36:20.306Z,922.06
2016-07-05T06:37:20.330Z,891
2016-07-05T06:38:20.297Z,847.98
2016-07-05T06:39:20.293Z,814.92
2016-07-05T06:40:20.374Z,778.56
2016-07-05T06:41:20.300Z,751.27
2016-07-05T06:42:20.300Z,718.85
2016-07-05T06:43:20.308Z,689.64
2016-07-05T06:44:20.328Z,667.6
2016-07-05T06:45:20.308Z,651.41
2016-07-05T06:46:20.358Z,632.73
2016-07-05T06:47:20.303Z,613.33
2016-07-05T06:48:20.336Z,592.21
2016-07-05T06:49:20.314Z,573.12
2016-07-05T06:50:20.384Z,555.9
2016-07-05T06:51:20.393Z,538.03
2016-07-05T06:52:20.462Z,520.64
2016-07-05T06:53:20.324Z,511.82
2016-07-05T06:54:20.329Z,498.98
2016-07-05T06:55:20.385Z,488.28
2016-07-05T06:56:20.320Z,480.92
2016-07-05T06:57:20.335Z,470.77
2016-07-05T06:58:20.347Z,461.57
2016-07-05T06:59:20.385Z,450.8
2016-07-05T07:00:20.342Z,446.94
2016-07-05T07:01:21.010Z,442.57
2016-07-05T07:02:20.331Z,447.36
2016-07-05T07:03:20.363Z,456.81
2016-07-05T07:04:20.317Z,472.43
2016-07-05T07:05:20.322Z,492.21
2016-07-05T07:06:20.318Z,513.83
2016-07-05T07:07:20.385Z,534.28
2016-07-05T07:08:20.334Z,553.45
2016-07-05T07:09:20.389Z,568.75
2016-07-05T07:10:20.315Z,583.89
2016-07-05T07:11:20.610Z,603.74
2016-07-05T07:12:20.328Z,629.15
2016-07-05T07:13:20.343Z,653.98
2016-07-05T07:14:20.354Z,677.48
2016-07-05T07:15:20.332Z,698.02
2016-07-05T07:16:20.353Z,713.49
2016-07-05T07:17:20.333Z,729.33
2016-07-05T07:18:20.393Z,745.4
2016-07-05T07:19:20.353Z,760.9
2016-07-05T07:20:20.354Z,772.73
2016-07-05T07:21:20.336Z,783.53
2016-07-05T07:22:20.346Z,787.72
2016-07-05T07:23:20.352Z,795.52
2016-07-05T07:24:20.344Z,803.74
2016-07-05T07:25:20.348Z,814.43
2016-07-05T07:26:20.357Z,826.01
2016-07-05T07:27:20.364Z,836.54
2016-07-05T07:28:20.352Z,854.05
2016-07-05T07:29:20.348Z,865.94
2016-07-05T07:30:20.341Z,873.73
2016-07-05T07:31:20.379Z,878.28
2016-07-05T07:32:20.363Z,877.69
2016-07-05T07:33:20.351Z,876.41
2016-07-05T07:34:20.414Z,871.67
2016-07-05T07:35:20.364Z,870.09
2016-07-05T07:36:20.353Z,872.87
2016-07-05T07:37:20.365Z,873.03
2016-07-05T07:38:20.384Z,867.63
2016-07-05T07:39:20.362Z,858.07
2016-07-05T07:40:20.368Z,857.99
2016-07-05T07:41:20.362Z,866.14
2016-07-05T07:42:20.401Z,874.96
2016-07-05T07:43:20.394Z,886.23
2016-07-05T07:44:20.368Z,896.32
2016-07-05T07:45:20.390Z,909.59
2016-07-05T07:46:20.384Z,923.64
2016-07-05T07:47:20.376Z,936.5
2016-07-05T07:48:20.399Z,950.36
2016-07-05T07:49:20.378Z,960.71
2016-07-05T07:50:20.476Z,969.12
2016-07-05T07:51:20.446Z,978.37
2016-07-05T07:52:20.400Z,986.57
2016-07-05T07:53:20.403Z,992.28
2016-07-05T07:54:20.395Z,996.87
2016-07-05T07:55:20.445Z,1004.19
2016-07-05T07:56:20.412Z,1011.46
2016-07-05T07:57:20.419Z,1018.09
2016-07-05T07:58:20.428Z,1024.62
2016-07-05T07:59:20.391Z,1028.75
2016-07-05T08:00:20.407Z,1031.62
2016-07-05T08:01:20.578Z,1035.23
2016-07-05T08:02:21.179Z,1038.91
2016-07-05T08:03:20.400Z,1043.53
2016-07-05T08:04:20.429Z,1044.82
2016-07-05T08:05:20.394Z,1044.46
2016-07-05T08:06:20.427Z,1043.59
2016-07-05T08:07:20.416Z,1042.43
2016-07-05T08:08:20.414Z,1040.58
2016-07-05T08:09:20.402Z,1040.88
2016-07-05T08:10:20.415Z,1044.11
2016-07-05T08:11:20.404Z,1045.86
2016-07-05T08:12:20.449Z,1048.3
2016-07-05T08:13:20.430Z,1051.38
2016-07-05T08:14:20.474Z,1057.71
2016-07-05T08:15:20.426Z,1061.27
2016-07-05T08:16:20.448Z,1062.78
2016-07-05T08:17:20.441Z,1063.43
2016-07-05T08:18:20.434Z,1064.03
2016-07-05T08:19:20.426Z,1065.55
2016-07-05T08:20:20.443Z,1067.74
2016-07-05T08:21:20.517Z,1070.72
2016-07-05T08:22:20.429Z,1071.95
2016-07-05T08:23:20.455Z,1072.37
2016-07-05T08:24:20.458Z,1072.36
2016-07-05T08:25:20.527Z,1071.96
2016-07-05T08:26:20.503Z,1072.3
2016-07-05T08:27:20.429Z,1069.98
2016-07-05T08:28:20.432Z,1068.19
2016-07-05T08:29:20.558Z,1064.83
2016-07-05T08:30:20.443Z,1058.71
2016-07-05T08:31:20.426Z,1048.72
2016-07-05T08:32:20.514Z,1038.53
2016-07-05T08:33:20.465Z,1030.23
2016-07-05T08:34:20.502Z,1023.39
2016-07-05T08:35:20.426Z,1017.03
2016-07-05T08:36:20.443Z,1009.67
2016-07-05T08:37:20.428Z,1009.55
2016-07-05T08:38:20.447Z,1009.7
2016-07-05T08:39:20.427Z,1011.02
2016-07-05T08:40:20.435Z,1017.31
2016-07-05T08:41:20.433Z,1024.32
2016-07-05T08:42:20.449Z,1034.33
2016-07-05T08:43:20.452Z,1044.49
2016-07-05T08:44:20.430Z,1054.72
2016-07-05T08:45:20.467Z,1065.22
2016-07-05T08:46:20.449Z,1072.59
2016-07-05T08:47:20.453Z,1078.73
2016-07-05T08:48:20.465Z,1085.27
2016-07-05T08:49:20.451Z,1090.76
2016-07-05T08:50:20.460Z,1096.63
2016-07-05T08:51:20.494Z,1099.1
2016-07-05T08:52:20.472Z,1099.32
2016-07-05T08:53:20.517Z,1100
2016-07-05T08:54:20.465Z,1101.48
2016-07-05T08:55:20.453Z,1102.79
2016-07-05T08:56:20.460Z,1101.86
2016-07-05T08:57:20.455Z,1100.6
2016-07-05T08:58:20.465Z,1099.48
2016-07-05T08:59:20.461Z,1097.75
2016-07-05T09:00:20.472Z,1094.15
2016-07-05T09:01:20.549Z,1089
2016-07-05T09:02:20.464Z,1082.65
2016-07-05T09:03:20.626Z,1075.6
2016-07-05T09:04:20.493Z,1069.02
2016-07-05T09:05:20.806Z,1060.14
2016-07-05T09:06:20.464Z,1053.43
2016-07-05T09:07:20.466Z,1053.16
2016-07-05T09:08:20.466Z,1051.87
2016-07-05T09:09:20.458Z,1049.58
2016-07-05T09:10:20.461Z,1047.44
2016-07-05T09:11:20.516Z,1042.56
2016-07-05T09:12:20.471Z,1035.94
2016-07-05T09:13:20.498Z,1029.23
2016-07-05T09:14:20.465Z,1025.65
2016-07-05T09:15:20.497Z,1023.44
2016-07-05T09:16:20.474Z,1021.52
2016-07-05T09:17:20.478Z,1017.1
2016-07-05T09:18:20.486Z,1013
2016-07-05T09:19:20.523Z,1010.67
2016-07-05T09:20:20.481Z,1008.11
2016-07-05T09:21:20.549Z,1007.05
2016-07-05T09:22:20.468Z,1007.57
2016-07-05T09:23:20.476Z,1007.17
2016-07-05T09:24:20.488Z,1003.92
2016-07-05T09:25:20.488Z,1000.94
2016-07-05T09:26:20.484Z,998.45
2016-07-05T09:27:20.535Z,993.72
2016-07-05T09:28:20.488Z,994.24
2016-07-05T09:29:20.566Z,1003.63
2016-07-05T09:30:20.484Z,1016.29
2016-07-05T09:31:20.523Z,1023.87
2016-07-05T09:32:20.484Z,1029.39
2016-07-05T09:33:20.558Z,1036.43
2016-07-05T09:34:20.486Z,1040.28
2016-07-05T09:35:20.500Z,1040.56
2016-07-05T09:36:20.509Z,1042.99
2016-07-05T09:37:20.499Z,1045.38
2016-07-05T09:38:20.523Z,1049.74
2016-07-05T09:39:20.500Z,1053.6
2016-07-05T09:40:20.505Z,1056.32
2016-07-05T09:41:20.506Z,1059.96
2016-07-05T09:42:20.494Z,1058.64
2016-07-05T09:43:20.499Z,1054.68
2016-07-05T09:44:20.491Z,1051.19
2016-07-05T09:45:20.490Z,1046.72
2016-07-05T09:46:20.488Z,1040.81
2016-07-05T09:47:20.504Z,1032.47
2016-07-05T09:48:20.519Z,1027.97
2016-07-05T09:49:20.508Z,1021.99
2016-07-05T09:50:20.799Z,1015.62
2016-07-05T09:51:20.523Z,1009.32
2016-07-05T09:52:20.517Z,1008.35
2016-07-05T09:53:20.510Z,1008.56
2016-07-05T09:54:20.516Z,1009.58
2016-07-05T09:55:20.509Z,1016.25
2016-07-05T09:56:20.516Z,1021.32
2016-07-05T09:57:20.534Z,1024.25
2016-07-05T09:58:20.604Z,1030.6
2016-07-05T09:59:20.542Z,1036.76
2016-07-05T10:00:20.533Z,1041.57
2016-07-05T10:01:20.531Z,1046.77
2016-07-05T10:02:20.583Z,1052.97
2016-07-05T10:03:20.531Z,1056.65
2016-07-05T10:04:20.907Z,1058.09
2016-07-05T10:05:20.549Z,1060.83
2016-07-05T10:06:20.546Z,1064.15
2016-07-05T10:07:20.524Z,1064.26
2016-07-05T10:08:20.520Z,1062.35
2016-07-05T10:09:20.528Z,1063.16
2016-07-05T10:10:20.536Z,1066.95
2016-07-05T10:11:20.521Z,1073.36
2016-07-05T10:12:20.543Z,1080.26
2016-07-05T10:13:20.522Z,1084.77
2016-07-05T10:14:20.589Z,1087.87
2016-07-05T10:15:20.549Z,1087.53
2016-07-05T10:16:20.539Z,1083.25
2016-07-05T10:17:20.585Z,1078.39
2016-07-05T10:18:20.598Z,1076.46
2016-07-05T10:19:20.559Z,1074.31
2016-07-05T10:20:20.555Z,1076.04
2016-07-05T10:21:20.533Z,1078.52
2016-07-05T10:22:20.547Z,1081.49
2016-07-05T10:23:20.550Z,1083.22
2016-07-05T10:24:20.584Z,1081.56
2016-07-05T10:25:20.533Z,1074.71
2016-07-05T10:26:20.569Z,1065.03
2016-07-05T10:27:20.555Z,1056.92
2016-07-05T10:28:20.566Z,1049.83
2016-07-05T10:29:20.546Z,1043.55
2016-07-05T10:30:20.640Z,1037.96
2016-07-05T10:31:20.550Z,1033.18
2016-07-05T10:32:20.560Z,1028.81
2016-07-05T10:33:20.594Z,1026.64
2016-07-05T10:34:20.557Z,1025.4
2016-07-05T10:35:20.552Z,1027
2016-07-05T10:36:20.642Z,1030.13
2016-07-05T10:37:20.560Z,1033.51
2016-07-05T10:38:20.561Z,1039.93
2016-07-05T10:39:20.550Z,1047.02
2016-07-05T10:40:20.615Z,1056
2016-07-05T10:41:20.562Z,1064.32
2016-07-05T10:42:20.555Z,1072.03
2016-07-05T10:43:20.555Z,1077.96
2016-07-05T10:44:20.553Z,1082.38
2016-07-05T10:45:20.565Z,1087.06
2016-07-05T10:46:20.597Z,1091.1
2016-07-05T10:47:20.590Z,1095.11
2016-07-05T10:48:20.551Z,1099.8
2016-07-05T10:49:20.558Z,1104.45
2016-07-05T10:50:20.616Z,1108.35
2016-07-05T10:51:20.566Z,1110.47
2016-07-05T10:52:20.626Z,1111.68
2016-07-05T10:53:20.577Z,1112.45
2016-07-05T10:54:20.585Z,1112.38
2016-07-05T10:55:20.557Z,1110.72
2016-07-05T10:56:20.563Z,1109.5
2016-07-05T10:57:20.582Z,1106.57
2016-07-05T10:58:20.618Z,1103.46
2016-07-05T10:59:20.586Z,1099.8
2016-07-05T11:00:20.573Z,1093.87
2016-07-05T11:01:20.561Z,1084.11
2016-07-05T11:02:20.574Z,1072.64
2016-07-05T11:03:20.578Z,1061.44
2016-07-05T11:04:20.597Z,1050.97
2016-07-05T11:05:20.581Z,1043.91
2016-07-05T11:06:20.649Z,1039.82
2016-07-05T11:07:20.637Z,1038.75
2016-07-05T11:08:20.648Z,1038.37
2016-07-05T11:09:20.581Z,1038.33
2016-07-05T11:10:20.625Z,1040.81
2016-07-05T11:11:21.641Z,1045.03
2016-07-05T11:12:20.587Z,1049.49
2016-07-05T11:13:20.614Z,1054.21
2016-07-05T11:14:20.645Z,1060.41
2016-07-05T11:15:20.659Z,1066.48
2016-07-05T11:16:20.626Z,1072.46
2016-07-05T11:17:20.745Z,1076.59
2016-07-05T11:18:20.647Z,1082.01
2016-07-05T11:19:20.616Z,1087.88
2016-07-05T11:20:20.595Z,1093.47
2016-07-05T11:21:20.617Z,1099.02
2016-07-05T11:22:20.679Z,1103.03
2016-07-05T11:23:20.629Z,1106.57
2016-07-05T11:24:20.679Z,1110.63
2016-07-05T11:25:20.609Z,1113.83
2016-07-05T11:26:20.619Z,1117.02
2016-07-05T11:27:20.611Z,1119.55
2016-07-05T11:28:20.643Z,1121.47
2016-07-05T11:29:20.619Z,1122.26
2016-07-05T11:30:20.617Z,1122.94
2016-07-05T11:31:20.649Z,1123.41
2016-07-05T11:32:20.612Z,1123.41
2016-07-05T11:33:20.617Z,1122.78
2016-07-05T11:34:20.606Z,1121.85
2016-07-05T11:35:20.620Z,1121.45
2016-07-05T11:36:20.619Z,1121.6
2016-07-05T11:37:20.608Z,1122.27
2016-07-05T11:38:20.625Z,1123.21
2016-07-05T11:39:20.622Z,1124.2
2016-07-05T11:40:20.611Z,1125.94
2016-07-05T11:41:20.616Z,1126.88
2016-07-05T11:42:20.607Z,1127.37
2016-07-05T11:43:20.601Z,1128.62
2016-07-05T11:44:20.621Z,1130.35
2016-07-05T11:45:20.615Z,1131.94
2016-07-05T11:46:20.620Z,1131.24
2016-07-05T11:47:20.613Z,1131.3
2016-07-05T11:48:20.635Z,1131.16
2016-07-05T11:49:20.627Z,1131.02
2016-07-05T11:50:20.620Z,1131.08
2016-07-05T11:51:20.655Z,1131.89
2016-07-05T11:52:20.617Z,1133.93
2016-07-05T11:53:20.630Z,1134.4
2016-07-05T11:54:20.646Z,1133.79
2016-07-05T11:55:20.644Z,1132.66
2016-07-05T11:56:20.703Z,1131.09
2016-07-05T11:57:20.628Z,1127.73
2016-07-05T11:58:20.644Z,1124.69
2016-07-05T11:59:20.647Z,1122.29
2016-07-05T12:00:20.658Z,1120.37
2016-07-05T12:01:20.652Z,1116.26
2016-07-05T12:02:21.309Z,1112.01
2016-07-05T12:03:20.655Z,1107.79
2016-07-05T12:04:20.628Z,1101.53
2016-07-05T12:05:20.648Z,1094.98
2016-07-05T12:06:20.719Z,1088.96
2016-07-05T12:07:20.628Z,1083.73
2016-07-05T12:08:20.644Z,1077.03
2016-07-05T12:09:20.667Z,1070.56
2016-07-05T12:10:20.628Z,1065.94
2016-07-05T12:11:20.663Z,1064.31